NCAR-RAP Real-Time Weather Data

Output produced by METARs form (08 May 2021  17:02 UTC)
found at http://weather.rap.ucar.edu/surface/
 
KGCC 081653Z AUTO 32018G24KT 10SM BKN011 OVC020 06/03 A2987 RMK AO2 SLP094 T00560033
KGCC 081553Z AUTO 32017G27KT 10SM BKN013 OVC049 05/04 A2985 RMK AO2 PK WND 30031/1522 RAE08 SLP088 P0001 T00500044
KGCC 081539Z AUTO 31019G28KT 10SM BKN012 OVC046 06/05 A2984 RMK AO2 PK WND 30031/1522 RAE08 P0001 T00560050
KGCC 081529Z AUTO 30022G31KT 10SM SCT010 BKN017 OVC045 06/04 A2984 RMK AO2 PK WND 30031/1522 RAE08 P0001 T00560044
KGCC 081522Z AUTO 31020G31KT 10SM BKN012 BKN017 OVC043 06/05 A2984 RMK AO2 PK WND 30031/1522 RAE08 P0001 T00560050
KGCC 081515Z AUTO 31021G29KT 10SM BKN009 OVC017 06/05 A2983 RMK AO2 PK WND 31029/1515 RAE08 P0001 T00560050
KGCC 081503Z AUTO 31020G28KT 9SM -RA SCT009 OVC015 06/05 A2983 RMK AO2 PK WND 30028/1455 P0001 T00560050
KGCC 081456Z AUTO 31023G28KT 6SM -RA BR BKN011 OVC018 06/06 A2981 RMK AO2 PK WND 30028/1455 P0001 T00610056
KGCC 081453Z AUTO 31019G28KT 6SM -RA BR SCT010 OVC015 06/06 A2981 RMK AO2 PK WND 30030/1417 SLP073 P0002 60002 T00610056 51023
KGCC 081432Z AUTO 31016G25KT 10SM -RA FEW007 OVC014 07/06 A2980 RMK AO2 PK WND 30030/1417 P0002 T00670056
KGCC 081418Z AUTO 31022G30KT 5SM -RA BR BKN007 BKN012 OVC016 07/06 A2980 RMK AO2 PK WND 30030/1417 CIG 006V009 P0001 T00670056
KGCC 081400Z AUTO 31011KT 2 1/2SM -RA BR BKN007 OVC013 07/06 A2979 RMK AO2 CIG 006V010 P0000 T00720061
KGCC 081353Z AUTO 30014KT 8SM -RA FEW007 OVC012 08/06 A2979 RMK AO2 RAB52 SLP062 P0000 T00780056
KGCC 081253Z AUTO 31010KT 10SM OVC013 08/06 A2976 RMK AO2 SLP048 T00830056
KGCC 081153Z AUTO 31016G25KT 10SM OVC014 08/06 A2973 RMK AO2 PK WND 31027/1141 SLP039 T00830056 10161 20083 51002
KGCC 081148Z AUTO 31017G27KT 10SM OVC014 09/06 A2973 RMK AO2 PK WND 31027/1141
KGCC 081106Z AUTO 34012KT 10SM BKN016 OVC038 09/05 A2970 RMK AO2 PRESFR T00890050
KGCC 081053Z AUTO 31012KT 10SM FEW016 OVC037 09/05 A2973 RMK AO2 PK WND 31026/1010 SLP037 T00890050
KGCC 080953Z AUTO 31009KT 10SM FEW035 FEW043 09/06 A2973 RMK AO2 SLP031 T00890056
KGCC 080853Z AUTO 30008KT 10SM CLR 10/06 A2971 RMK AO2 SLP026 T01000056 50028
KGCC 080753Z AUTO 30010KT 10SM BKN041 BKN050 12/06 A2972 RMK AO2 SLP027 T01170056
KGCC 080653Z AUTO 16019G25KT 10SM CLR 16/07 A2965 RMK AO2 PK WND 16037/0604 SLP000 T01610067 402440050
KGCC 080553Z AUTO 15025G36KT 10SM CLR 16/06 A2962 RMK AO2 PK WND 14038/0539 SLP987 T01610061 10222 20161 58017
KGCC 080453Z AUTO 16025G38KT 10SM CLR 17/06 A2964 RMK AO2 PK WND 15040/0443 SLP997 T01720061
KGCC 080353Z AUTO 15021G30KT 10SM CLR 18/06 A2968 RMK AO2 PK WND 15040/0314 SLP011 T01780056